Moody, Missouri
Current Conditions -  °F | °C
As of 11:53 AM on Sunday 21 Dec 2014 (Local Time) from KUNO Reporting Station
Overcast Overcast  
Wind Chill: 33°   Ceiling: 1100
Heat Index: 39°   Visibility: 10mi
Dew Point: 34°   Wind: 8mph
Humidity: 82%   Direction: 150°SSE
Pressure: 30.1"   Gusts: NA
Location:  36.53°N, 91.99°W
Report Text: KUNO 211753Z AUTO 15007KT 10SM BKN011 OVC031 04/01 A3010 RMK AO2 SLP198 T00390011 10039 20028 58017 $
Loading
Personal Weather Stations






























Interactive Weather Map New forecast layout! Learn more

10-Day Weather Forecast

Advertisements
Track Severe Weather on mobile